Tuesday, October 16, 2018, 10:01 AM GMT
Back to Local

CWAF, Ile Rouge Meteorological Aeronautical Presentation System

Location: , , Canada Lat: 48.083
Local Time: 10:01 AM GMT (10:01 GMT) Lon: -69.55
Time Zone: GMT Elev: 16 ft

Show me the last for .
Show Coded

Time T Td Feel RH Dir Speed Gust Alt SLP Vis Weather Sky Remarks
2018-10-16 09:00 44 33 34 65 240° 24 30 - - 0 Peak wind: 36 mph (32 kts) from 240° at 11 min
2018-10-16 08:00 45 34 35 64 250° 25 36 - - 0 Peak wind: 35 mph (31 kts) from 250° at 54 min
2018-10-16 07:00 45 40 33 85 250° 28 39 - - 0 Peak wind: 39 mph (34 kts) from 240° at 55 min
1-hr Precip Total: 0.02"
2018-10-16 06:00 44 44 37 97 220° 15 - - - 0 None
2018-10-16 05:00 41 41 - 97 140° 2 - - - 0 None
2018-10-16 04:00 41 40 38 97 90° 5 - - - 0 None
2018-10-16 03:00 38 40 32 105 40° 9 - - - 0 None
2018-10-16 02:00 40 39 32 97 40° 14 - - - 0 1-hr Precip Total: 0.01"
2018-10-16 01:00 40 39 32 97 40° 15 - - - 0 Peak wind: 21 mph (19 kts) from 40° at 05 min
1-hr Precip Total: 0.04"
2018-10-16 00:00 40 39 30 97 30° 18 - - - 0 Peak wind: 23 mph (20 kts) from 30° at 48 min
1-hr Precip Total: 0.05"
2018-10-15 23:00 41 39 35 94 50° 10 - - - 0 1-hr Precip Total: 0.02"
2018-10-15 22:00 47 41 42 80 180° 10 - - - 0 1-hr Precip Total: 0.02"
2018-10-15 21:00 41 39 35 90 40° 12 - - - 0 None
2018-10-15 20:00 40 39 34 95 40° 9 - - - 0 None
2018-10-15 19:00 43 39 38 87 70° 8 - - - 0 None
2018-10-15 18:00 46 41 44 81 150° 5 - - - 0 None
2018-10-15 17:00 47 40 44 77 220° 7 - - - 0 None
2018-10-15 16:00 46 40 40 77 220° 13 - - - 0 None
2018-10-15 15:00 45 40 39 80 200° 13 - - - 0 None
2018-10-15 14:00 46 39 40 76 180° 12 - - - 0 Peak wind: 20 mph (18 kts) from 200° at 23 min
2018-10-15 13:00 44 39 37 85 200° 13 - - - 0 None
2018-10-15 12:00 43 40 38 86 210° 10 - - - 0 None
2018-10-15 11:00 42 38 - 87 180° 2 - - - 0 None

Support USWX by starting your Amazon purchase here.